Big Bear Station Historical Data
Daily Summary for March 20, 2019 Units:  English    Metric   Both
Next Day »
Daily Weekly Monthly Yearly Custom
  High: Low: Average:
Temperature: 44.1 °F 28.8 °F 34.7 °F
Dew Point: 32.9 °F 21.1 °F 27.6 °F
Humidity: 93% 57% 76%
Wind Speed: 7.8mph 0.0mph 1.8mph
Wind Gust: -999.0mph - -
Wind- - West
Pressure: 23.42 in 23.37 in -
Precipitation: 0.00 in    
Historical Graphs
 
 
Tabular Data for March 20, 2019
Time Temperature Dew Point Pressure Wind Wind Speed Wind Gust Humidity Rainfall Rate (Hourly)
00:06 34.0 °F 30.3 °F 23.40 in East 3.7 mph -999.0 mph 86% 0.00 in
00:21 33.6 °F 29.6 °F 23.40 in SW 2.7 mph -999.0 mph 85% 0.00 in
00:37 33.6 °F 28.1 °F 23.39 in NNW 2.7 mph -999.0 mph 80% 0.00 in
00:52 34.2 °F 26.8 °F 23.39 in WSW 6.3 mph -999.0 mph 74% 0.00 in
01:07 34.0 °F 24.9 °F 23.39 in SW 3.2 mph -999.0 mph 69% 0.00 in
01:23 33.6 °F 25.2 °F 23.39 in SW 4.2 mph -999.0 mph 71% 0.00 in
01:38 33.4 °F 24.7 °F 23.39 in ESE 1.7 mph -999.0 mph 70% 0.00 in
01:53 33.1 °F 25.4 °F 23.39 in Calm   -999.0 mph 73% 0.00 in
02:08 32.7 °F 25.0 °F 23.39 in Calm   -999.0 mph 73% 0.00 in
02:24 32.4 °F 24.7 °F 23.39 in Calm   -999.0 mph 73% 0.00 in
02:39 32.0 °F 24.7 °F 23.39 in Calm   -999.0 mph 74% 0.00 in
02:55 32.7 °F 22.9 °F 23.38 in Calm   -999.0 mph 67% 0.00 in
03:10 32.7 °F 21.1 °F 23.39 in Calm   -999.0 mph 62% 0.00 in
03:25 32.7 °F 22.6 °F 23.38 in Calm   -999.0 mph 66% 0.00 in
03:40 33.6 °F 23.1 °F 23.39 in Calm   -999.0 mph 65% 0.00 in
03:56 34.0 °F 23.8 °F 23.37 in South 7.8 mph -999.0 mph 66% 0.00 in
04:11 34.0 °F 23.8 °F 23.37 in SSW 2.7 mph -999.0 mph 66% 0.00 in
04:26 33.8 °F 24.0 °F 23.37 in Calm   -999.0 mph 67% 0.00 in
04:41 33.6 °F 23.1 °F 23.37 in SSE 2.7 mph -999.0 mph 65% 0.00 in
04:57 33.3 °F 22.8 °F 23.37 in Calm   -999.0 mph 65% 0.00 in
05:12 33.1 °F 22.2 °F 23.38 in SSE 3.2 mph -999.0 mph 64% 0.00 in
05:28 32.9 °F 21.7 °F 23.37 in SSE 6.3 mph -999.0 mph 63% 0.00 in
05:43 32.5 °F 22.4 °F 23.38 in Calm   -999.0 mph 66% 0.00 in
05:58 32.2 °F 22.8 °F 23.38 in Calm   -999.0 mph 68% 0.00 in
06:13 32.2 °F 23.2 °F 23.38 in Calm   -999.0 mph 69% 0.00 in
06:28 31.8 °F 23.1 °F 23.39 in Calm   -999.0 mph 70% 0.00 in
06:44 32.4 °F 23.0 °F 23.39 in Calm   -999.0 mph 68% 0.00 in
06:59 32.2 °F 22.5 °F 23.39 in Calm   -999.0 mph 67% 0.00 in
07:15 32.4 °F 21.9 °F 23.39 in Calm   -999.0 mph 65% 0.00 in
07:30 33.1 °F 21.9 °F 23.39 in South 1.7 mph -999.0 mph 63% 0.00 in
07:45 33.6 °F 24.5 °F 23.39 in NNW 1.1 mph -999.0 mph 69% 0.00 in
08:00 34.2 °F 25.4 °F 23.40 in Calm   -999.0 mph 70% 0.00 in
08:15 35.2 °F 27.1 °F 23.40 in Calm   -999.0 mph 72% 0.00 in
08:31 36.1 °F 28.9 °F 23.40 in Calm   -999.0 mph 75% 0.00 in
08:46 36.9 °F 29.1 °F 23.40 in Calm   -999.0 mph 73% 0.00 in
09:01 37.0 °F 26.7 °F 23.41 in Calm   -999.0 mph 66% 0.00 in
09:16 37.6 °F 28.0 °F 23.40 in Calm   -999.0 mph 68% 0.00 in
09:32 39.4 °F 29.7 °F 23.41 in West 4.2 mph -999.0 mph 68% 0.00 in
09:47 39.9 °F 30.2 °F 23.41 in East 1.7 mph -999.0 mph 68% 0.00 in
10:03 39.4 °F 28.2 °F 23.41 in Calm   -999.0 mph 64% 0.00 in
10:18 38.8 °F 26.9 °F 23.41 in NW 3.2 mph -999.0 mph 62% 0.00 in
10:34 39.0 °F 27.1 °F 23.41 in NNW 3.2 mph -999.0 mph 62% 0.00 in
10:49 40.3 °F 28.3 °F 23.41 in WSW 1.1 mph -999.0 mph 62% 0.00 in
11:05 39.7 °F 25.7 °F 23.41 in NNW 1.7 mph -999.0 mph 57% 0.00 in
11:20 39.4 °F 26.7 °F 23.41 in NW 2.7 mph -999.0 mph 60% 0.00 in
11:35 40.5 °F 29.7 °F 23.41 in WNW 7.3 mph -999.0 mph 65% 0.00 in
11:51 40.5 °F 30.8 °F 23.41 in WNW 5.3 mph -999.0 mph 68% 0.00 in
12:06 40.6 °F 31.9 °F 23.42 in NW 2.7 mph -999.0 mph 71% 0.00 in
12:21 43.0 °F 32.8 °F 23.41 in NW 7.3 mph -999.0 mph 67% 0.00 in
12:36 43.9 °F 32.5 °F 23.41 in NW 7.8 mph -999.0 mph 64% 0.00 in
12:52 43.2 °F 32.6 °F 23.40 in NW 6.3 mph -999.0 mph 66% 0.00 in
13:07 43.3 °F 30.8 °F 23.40 in NNW 6.3 mph -999.0 mph 61% 0.00 in
13:22 43.0 °F 31.3 °F 23.40 in NNW 5.8 mph -999.0 mph 63% 0.00 in
13:38 42.8 °F 29.9 °F 23.40 in NNW 4.2 mph -999.0 mph 60% 0.00 in
13:53 44.1 °F 30.3 °F 23.38 in North 5.8 mph -999.0 mph 58% 0.00 in
14:08 44.1 °F 31.9 °F 23.38 in WNW 1.1 mph -999.0 mph 62% 0.00 in
14:23 42.3 °F 31.7 °F 23.38 in West 2.2 mph -999.0 mph 66% 0.00 in
14:38 41.4 °F 32.3 °F 23.38 in NW 3.7 mph -999.0 mph 70% 0.00 in
14:54 39.7 °F 32.4 °F 23.37 in WNW 5.3 mph -999.0 mph 75% 0.00 in
15:09 39.2 °F 32.6 °F 23.37 in West 1.7 mph -999.0 mph 77% 0.00 in
15:25 38.5 °F 32.9 °F 23.37 in NW 4.2 mph -999.0 mph 80% 0.00 in
15:40 37.2 °F 32.8 °F 23.38 in Calm   -999.0 mph 84% 0.00 in
15:55 36.1 °F 31.7 °F 23.38 in NW 5.3 mph -999.0 mph 84% 0.00 in
16:10 34.7 °F 31.2 °F 23.38 in WNW 6.3 mph -999.0 mph 87% 0.00 in
16:26 34.5 °F 31.3 °F 23.38 in Calm   -999.0 mph 88% 0.00 in
16:41 33.3 °F 30.7 °F 23.38 in Calm   -999.0 mph 90% 0.00 in
16:57 33.1 °F 29.9 °F 23.38 in SSW 1.7 mph -999.0 mph 88% 0.00 in
17:12 33.4 °F 30.5 °F 23.37 in Calm   -999.0 mph 89% 0.00 in
17:27 33.4 °F 30.8 °F 23.37 in Calm   -999.0 mph 90% 0.00 in
17:42 33.1 °F 30.5 °F 23.37 in Calm   -999.0 mph 90% 0.00 in
17:57 32.7 °F 30.1 °F 23.37 in Calm   -999.0 mph 90% 0.00 in
18:13 32.5 °F 30.2 °F 23.38 in Calm   -999.0 mph 91% 0.00 in
18:28 32.2 °F 30.1 °F 23.38 in Calm   -999.0 mph 92% 0.00 in
18:43 31.6 °F 29.8 °F 23.39 in Calm   -999.0 mph 93% 0.00 in
18:58 30.6 °F 28.8 °F 23.39 in NW 1.1 mph -999.0 mph 93% 0.00 in
19:13 30.4 °F 28.4 °F 23.39 in Calm   -999.0 mph 92% 0.00 in
19:29 30.2 °F 28.2 °F 23.39 in Calm   -999.0 mph 92% 0.00 in
19:44 30.2 °F 28.2 °F 23.39 in Calm   -999.0 mph 92% 0.00 in
19:59 30.2 °F 28.4 °F 23.39 in Calm   -999.0 mph 93% 0.00 in
20:14 30.2 °F 28.4 °F 23.39 in Calm   -999.0 mph 93% 0.00 in
20:29 30.2 °F 28.2 °F 23.39 in Calm   -999.0 mph 92% 0.00 in
20:45 30.2 °F 28.2 °F 23.39 in Calm   -999.0 mph 92% 0.00 in
21:00 30.2 °F 28.4 °F 23.39 in Calm   -999.0 mph 93% 0.00 in
21:15 30.0 °F 28.0 °F 23.40 in Calm   -999.0 mph 92% 0.00 in
21:30 30.0 °F 28.0 °F 23.40 in NW 1.7 mph -999.0 mph 92% 0.00 in
21:45 30.0 °F 28.0 °F 23.40 in NW 2.7 mph -999.0 mph 92% 0.00 in
22:01 30.0 °F 27.7 °F 23.40 in Calm   -999.0 mph 91% 0.00 in
22:16 29.8 °F 27.5 °F 23.40 in Calm   -999.0 mph 91% 0.00 in
22:31 29.5 °F 26.9 °F 23.40 in SW 2.7 mph -999.0 mph 90% 0.00 in
22:46 29.1 °F 26.5 °F 23.40 in Calm   -999.0 mph 90% 0.00 in
23:02 29.1 °F 26.5 °F 23.40 in Calm   -999.0 mph 90% 0.00 in
23:17 28.8 °F 26.2 °F 23.40 in ESE 2.2 mph -999.0 mph 90% 0.00 in
23:32 28.8 °F 26.2 °F 23.40 in Calm   -999.0 mph 90% 0.00 in
23:47 28.9 °F 26.6 °F 23.40 in Calm   -999.0 mph 91% 0.00 in
Big Bear CA Weather